createdAt,value
2016-10-26T00:00:57.956Z,926.96
2016-10-26T00:02:08.474Z,926.99
2016-10-26T00:03:18.944Z,927.05
2016-10-26T00:04:29.547Z,927.07
2016-10-26T00:05:40.053Z,927.06
2016-10-26T00:06:50.525Z,927.07
2016-10-26T00:08:01.028Z,927.07
2016-10-26T00:09:11.528Z,927.06
2016-10-26T00:10:22.170Z,927.04
2016-10-26T00:11:32.646Z,927.01
2016-10-26T00:12:43.133Z,927.02
2016-10-26T00:13:53.599Z,927.04
2016-10-26T00:15:04.120Z,927
2016-10-26T00:16:14.604Z,927.01
2016-10-26T00:17:25.139Z,927.04
2016-10-26T00:18:35.654Z,927.12
2016-10-26T00:19:46.168Z,927.11
2016-10-26T00:20:56.662Z,927.16
2016-10-26T00:22:07.150Z,927.15
2016-10-26T00:23:17.752Z,927.15
2016-10-26T00:24:28.445Z,927.12
2016-10-26T00:25:38.920Z,927.14
2016-10-26T00:26:49.435Z,927.13
2016-10-26T00:28:00.068Z,927.17
2016-10-26T00:29:10.706Z,927.12
2016-10-26T00:30:21.291Z,927.09
2016-10-26T00:31:32.053Z,927.14
2016-10-26T00:32:42.664Z,927.07
2016-10-26T00:33:53.522Z,927.13
2016-10-26T00:35:04.103Z,927.15
2016-10-26T00:36:14.602Z,927.17
2016-10-26T00:37:25.108Z,927.15
2016-10-26T00:38:35.637Z,927.18
2016-10-26T00:39:46.211Z,927.21
2016-10-26T00:40:56.780Z,927.21
2016-10-26T00:42:07.282Z,927.23
2016-10-26T00:43:17.765Z,927.28
2016-10-26T00:44:28.229Z,927.25
2016-10-26T00:45:38.831Z,927.26
2016-10-26T00:46:49.341Z,927.29
2016-10-26T00:47:59.835Z,927.29
2016-10-26T00:49:10.306Z,927.28
2016-10-26T00:50:20.765Z,927.33
2016-10-26T00:51:31.220Z,927.29
2016-10-26T00:52:41.703Z,927.29
2016-10-26T00:53:52.213Z,927.23
2016-10-26T00:55:02.713Z,927.26
2016-10-26T00:56:13.205Z,927.22
2016-10-26T00:57:23.704Z,927.24
2016-10-26T00:58:34.184Z,927.27
2016-10-26T00:59:44.660Z,927.28
2016-10-26T01:00:55.649Z,927.29
2016-10-26T01:02:06.124Z,927.35
2016-10-26T01:03:16.738Z,927.34
2016-10-26T01:04:27.731Z,927.33
2016-10-26T01:05:38.206Z,927.34
2016-10-26T01:06:48.684Z,927.36
2016-10-26T01:07:59.159Z,927.4
2016-10-26T01:09:09.758Z,927.4
2016-10-26T01:10:20.240Z,927.41
2016-10-26T01:11:30.713Z,927.46
2016-10-26T01:12:41.186Z,927.49
2016-10-26T01:13:51.639Z,927.41
2016-10-26T01:15:02.211Z,927.47
2016-10-26T01:16:12.662Z,927.46
2016-10-26T01:17:23.138Z,927.49
2016-10-26T01:18:33.609Z,927.47
2016-10-26T01:19:44.076Z,927.49
2016-10-26T01:20:54.645Z,927.47
2016-10-26T01:22:05.606Z,927.45
2016-10-26T01:23:16.091Z,927.45
2016-10-26T01:24:26.564Z,927.45
2016-10-26T01:25:37.044Z,927.5
2016-10-26T01:26:47.510Z,927.44
2016-10-26T01:27:58.009Z,927.42
2016-10-26T01:29:08.470Z,927.4
2016-10-26T01:30:18.933Z,927.43
2016-10-26T01:31:29.400Z,927.4
2016-10-26T01:32:39.875Z,927.4
2016-10-26T01:33:50.340Z,927.35
2016-10-26T01:35:00.795Z,927.36
2016-10-26T01:36:11.264Z,927.34
2016-10-26T01:37:22.217Z,927.35
2016-10-26T01:38:32.826Z,927.38
2016-10-26T01:39:43.336Z,927.37
2016-10-26T01:40:53.810Z,927.32
2016-10-26T01:42:04.287Z,927.31
2016-10-26T01:43:14.737Z,927.3
2016-10-26T01:44:25.306Z,927.29
2016-10-26T01:45:35.771Z,927.28
2016-10-26T01:46:46.243Z,927.33
2016-10-26T01:47:56.691Z,927.25
2016-10-26T01:49:07.192Z,927.27
2016-10-26T01:50:17.654Z,927.28
2016-10-26T01:51:28.160Z,927.28
2016-10-26T01:52:38.632Z,927.29
2016-10-26T01:53:49.092Z,927.28
2016-10-26T01:54:59.597Z,927.24
2016-10-26T01:56:10.165Z,927.21
2016-10-26T01:57:20.632Z,927.21
2016-10-26T01:58:31.131Z,927.2
2016-10-26T01:59:41.606Z,927.18
2016-10-26T02:00:52.075Z,927.2
2016-10-26T02:02:02.635Z,927.21
2016-10-26T02:03:13.094Z,927.18
2016-10-26T02:04:23.550Z,927.12
2016-10-26T02:05:34.067Z,927.11
2016-10-26T02:06:44.525Z,927.1
2016-10-26T02:07:54.978Z,927.09
2016-10-26T02:09:05.438Z,927.09
2016-10-26T02:10:15.902Z,927.05
2016-10-26T02:11:26.363Z,927.07
2016-10-26T02:12:36.837Z,927.09
2016-10-26T02:13:47.311Z,927.09
2016-10-26T02:14:57.776Z,927.02
2016-10-26T02:16:08.252Z,927.05
2016-10-26T02:17:18.727Z,926.99
2016-10-26T02:18:29.185Z,927.01
2016-10-26T02:19:39.756Z,926.98
2016-10-26T02:20:50.216Z,927.01
2016-10-26T02:22:00.696Z,926.96
2016-10-26T02:23:11.167Z,926.97
2016-10-26T02:24:21.635Z,926.94
2016-10-26T02:25:32.203Z,926.9
2016-10-26T02:26:42.692Z,926.88
2016-10-26T02:27:53.144Z,926.83
2016-10-26T02:29:03.599Z,926.79
2016-10-26T02:30:14.078Z,926.83
2016-10-26T02:31:24.532Z,926.76
2016-10-26T02:32:34.986Z,926.71
2016-10-26T02:33:45.434Z,926.68
2016-10-26T02:34:55.891Z,926.67
2016-10-26T02:36:06.354Z,926.64
2016-10-26T02:37:16.841Z,926.61
2016-10-26T02:38:27.300Z,926.63
2016-10-26T02:39:37.788Z,926.63
2016-10-26T02:40:48.254Z,926.64
2016-10-26T02:41:58.716Z,926.65
2016-10-26T02:43:09.282Z,926.64
2016-10-26T02:44:19.739Z,926.61
2016-10-26T02:45:30.207Z,926.61
2016-10-26T02:46:40.674Z,926.57
2016-10-26T02:47:51.119Z,926.6
2016-10-26T02:49:01.665Z,926.57
2016-10-26T02:50:12.125Z,926.59
2016-10-26T02:51:22.587Z,926.62
2016-10-26T02:52:33.040Z,926.62
2016-10-26T02:53:43.534Z,926.6
2016-10-26T02:54:53.987Z,926.52
2016-10-26T02:56:04.450Z,926.58
2016-10-26T02:57:14.915Z,926.51
2016-10-26T02:58:25.370Z,926.54
2016-10-26T02:59:35.838Z,926.53
2016-10-26T03:00:46.293Z,926.54
2016-10-26T03:01:56.779Z,926.56
2016-10-26T03:03:07.237Z,926.53
2016-10-26T03:04:17.686Z,926.54
2016-10-26T03:05:28.139Z,926.57
2016-10-26T03:06:38.695Z,926.55
2016-10-26T03:07:49.151Z,926.47
2016-10-26T03:08:59.616Z,926.5
2016-10-26T03:10:10.069Z,926.44
2016-10-26T03:11:20.526Z,926.42
2016-10-26T03:12:31.079Z,926.45
2016-10-26T03:13:41.545Z,926.41
2016-10-26T03:14:51.993Z,926.43
2016-10-26T03:16:02.951Z,926.42
2016-10-26T03:17:13.393Z,926.38
2016-10-26T03:18:23.856Z,926.41
2016-10-26T03:19:34.350Z,926.42
2016-10-26T03:20:44.808Z,926.4
2016-10-26T03:21:55.269Z,926.43
2016-10-26T03:23:05.720Z,926.41
2016-10-26T03:24:16.300Z,926.39
2016-10-26T03:25:26.744Z,926.37
2016-10-26T03:26:37.206Z,926.35
2016-10-26T03:27:47.654Z,926.31
2016-10-26T03:28:58.108Z,926.28
2016-10-26T03:30:08.658Z,926.3
2016-10-26T03:31:19.119Z,926.29
2016-10-26T03:32:29.580Z,926.31
2016-10-26T03:33:40.037Z,926.32
2016-10-26T03:34:50.497Z,926.35
2016-10-26T03:36:00.947Z,926.34
2016-10-26T03:37:11.411Z,926.36
2016-10-26T03:38:21.859Z,926.3
2016-10-26T03:39:32.356Z,926.32
2016-10-26T03:40:42.810Z,926.26
2016-10-26T03:41:53.285Z,926.27
2016-10-26T03:43:03.733Z,926.24
2016-10-26T03:44:14.679Z,926.2
2016-10-26T03:45:25.130Z,926.22
2016-10-26T03:46:35.593Z,926.17
2016-10-26T03:47:46.139Z,926.15
2016-10-26T03:48:56.589Z,926.09
2016-10-26T03:50:07.081Z,926.07
2016-10-26T03:51:17.530Z,926.09
2016-10-26T03:52:27.985Z,926.03
2016-10-26T03:53:38.588Z,926.03
2016-10-26T03:54:49.079Z,926.02
2016-10-26T03:56:00.010Z,925.99
2016-10-26T03:57:10.470Z,925.94
2016-10-26T03:58:20.969Z,925.98
2016-10-26T03:59:31.419Z,925.92
2016-10-26T04:00:41.878Z,925.88
2016-10-26T04:01:52.328Z,925.84
2016-10-26T04:03:02.833Z,925.87
2016-10-26T04:04:13.291Z,925.82
2016-10-26T04:05:23.743Z,925.77
2016-10-26T04:06:34.204Z,925.82
2016-10-26T04:07:44.652Z,925.79
2016-10-26T04:08:55.108Z,925.78
2016-10-26T04:10:05.559Z,925.79
2016-10-26T04:11:16.013Z,925.79
2016-10-26T04:12:26.476Z,925.82
2016-10-26T04:13:37.418Z,925.81
2016-10-26T04:14:47.872Z,925.7
2016-10-26T04:15:58.324Z,925.73
2016-10-26T04:17:09.136Z,925.7
2016-10-26T04:18:19.587Z,925.65
2016-10-26T04:19:30.044Z,925.63
2016-10-26T04:20:40.533Z,925.68
2016-10-26T04:21:50.983Z,925.71
2016-10-26T04:23:01.596Z,925.68
2016-10-26T04:24:12.063Z,925.73
2016-10-26T04:25:22.514Z,925.75
2016-10-26T04:26:32.961Z,925.77
2016-10-26T04:27:43.416Z,925.7
2016-10-26T04:28:53.926Z,925.7
2016-10-26T04:30:04.462Z,925.76
2016-10-26T04:31:14.905Z,925.75
2016-10-26T04:32:25.449Z,925.74
2016-10-26T04:33:35.981Z,925.71
2016-10-26T04:34:46.546Z,925.66
2016-10-26T04:35:57.102Z,925.66
2016-10-26T04:37:07.683Z,925.64
2016-10-26T04:38:18.303Z,925.61
2016-10-26T04:39:28.914Z,925.64
2016-10-26T04:40:39.599Z,925.59
2016-10-26T04:41:50.123Z,925.55
2016-10-26T04:43:00.658Z,925.54
2016-10-26T04:44:11.276Z,925.49
2016-10-26T04:45:21.794Z,925.45
2016-10-26T04:46:32.375Z,925.41
2016-10-26T04:47:42.885Z,925.37
2016-10-26T04:48:53.413Z,925.38
2016-10-26T04:50:03.899Z,925.33
2016-10-26T04:51:14.430Z,925.31
2016-10-26T04:52:25.073Z,925.33
2016-10-26T04:53:35.603Z,925.29
2016-10-26T04:54:46.158Z,925.26
2016-10-26T04:55:56.619Z,925.25
2016-10-26T04:57:07.110Z,925.29
2016-10-26T04:58:17.823Z,925.24
2016-10-26T04:59:28.290Z,925.28
2016-10-26T05:00:38.802Z,925.25
2016-10-26T05:01:49.338Z,925.3
2016-10-26T05:02:59.850Z,925.29
2016-10-26T05:04:10.375Z,925.26
2016-10-26T05:05:20.845Z,925.3
2016-10-26T05:06:31.340Z,925.31
2016-10-26T05:07:41.853Z,925.3
2016-10-26T05:08:52.335Z,925.23
2016-10-26T05:10:03.410Z,925.24
2016-10-26T05:11:13.975Z,925.24
2016-10-26T05:12:24.503Z,925.21
2016-10-26T05:13:35.047Z,925.21
2016-10-26T05:14:45.569Z,925.2
2016-10-26T05:15:56.177Z,925.18
2016-10-26T05:17:06.644Z,925.19
2016-10-26T05:18:17.154Z,925.2
2016-10-26T05:19:27.657Z,925.13
2016-10-26T05:20:38.130Z,925.14
2016-10-26T05:21:48.706Z,925.12
2016-10-26T05:22:59.210Z,925.09
2016-10-26T05:24:09.719Z,925.1
2016-10-26T05:25:20.225Z,925.07
2016-10-26T05:26:30.759Z,925.07
2016-10-26T05:27:41.259Z,925.06
2016-10-26T05:28:51.762Z,925.02
2016-10-26T05:30:02.248Z,924.99
2016-10-26T05:31:12.715Z,924.94
2016-10-26T05:32:23.198Z,924.93
2016-10-26T05:33:33.782Z,924.85
2016-10-26T05:34:44.259Z,924.85
2016-10-26T05:35:55.273Z,924.75
2016-10-26T05:37:05.842Z,924.76
2016-10-26T05:38:16.369Z,924.74
2016-10-26T05:39:26.979Z,924.72
2016-10-26T05:40:37.553Z,924.64
2016-10-26T05:41:48.082Z,924.62
2016-10-26T05:42:58.630Z,924.6
2016-10-26T05:44:09.200Z,924.55
2016-10-26T05:45:19.843Z,924.57
2016-10-26T05:46:30.394Z,924.54
2016-10-26T05:47:40.945Z,924.52
2016-10-26T05:48:51.488Z,924.47
2016-10-26T05:50:01.996Z,924.47
2016-10-26T05:51:12.520Z,924.46
2016-10-26T05:52:23.035Z,924.47
2016-10-26T05:53:33.602Z,924.5
2016-10-26T05:54:44.121Z,924.48
2016-10-26T05:55:54.696Z,924.5
2016-10-26T05:57:05.244Z,924.55
2016-10-26T05:58:15.862Z,924.53
2016-10-26T05:59:26.382Z,924.51
2016-10-26T06:00:36.921Z,924.51
2016-10-26T06:01:47.459Z,924.5
2016-10-26T06:02:58.137Z,924.54
2016-10-26T06:04:08.631Z,924.56
2016-10-26T06:05:19.173Z,924.53
2016-10-26T06:06:29.701Z,924.49
2016-10-26T06:07:40.261Z,924.57
2016-10-26T06:08:50.979Z,924.56
2016-10-26T06:10:01.523Z,924.52
2016-10-26T06:11:12.046Z,924.53
2016-10-26T06:12:22.622Z,924.49
2016-10-26T06:13:33.220Z,924.52
2016-10-26T06:14:43.773Z,924.47
2016-10-26T06:15:54.313Z,924.47
2016-10-26T06:17:04.800Z,924.43
2016-10-26T06:18:15.316Z,924.42
2016-10-26T06:19:25.834Z,924.39
2016-10-26T06:20:36.376Z,924.4
2016-10-26T06:21:46.901Z,924.38
2016-10-26T06:22:57.442Z,924.4
2016-10-26T06:24:07.934Z,924.41
2016-10-26T06:25:18.472Z,924.45
2016-10-26T06:26:29.013Z,924.47
2016-10-26T06:27:39.595Z,924.44
2016-10-26T06:28:50.172Z,924.46
2016-10-26T06:30:00.706Z,924.43
2016-10-26T06:31:11.247Z,924.45
2016-10-26T06:32:21.814Z,924.46
2016-10-26T06:33:32.847Z,924.41
2016-10-26T06:34:43.354Z,924.43
2016-10-26T06:35:53.878Z,924.43
2016-10-26T06:37:04.402Z,924.44
2016-10-26T06:38:15.062Z,924.43
2016-10-26T06:39:25.608Z,924.43
2016-10-26T06:40:36.118Z,924.45
2016-10-26T06:41:46.653Z,924.43
2016-10-26T06:43:16.389Z,924.43
2016-10-26T06:44:26.977Z,924.38
2016-10-26T06:45:37.481Z,924.37
2016-10-26T06:46:48.000Z,924.35
2016-10-26T06:47:58.485Z,924.4
2016-10-26T06:49:09.038Z,924.42
2016-10-26T06:50:20.042Z,924.4
2016-10-26T06:51:30.550Z,924.38
2016-10-26T06:52:41.027Z,924.36
2016-10-26T06:53:51.512Z,924.35
2016-10-26T06:55:02.016Z,924.3
2016-10-26T06:56:12.485Z,924.39
2016-10-26T06:57:22.960Z,924.4
2016-10-26T06:58:33.474Z,924.44
2016-10-26T06:59:43.997Z,924.47
2016-10-26T07:00:54.481Z,924.44
2016-10-26T07:02:04.975Z,924.48
2016-10-26T07:03:16.006Z,924.47
2016-10-26T07:04:26.506Z,924.5
2016-10-26T07:05:36.990Z,924.48
2016-10-26T07:06:47.597Z,924.44
2016-10-26T07:07:58.555Z,924.43
2016-10-26T07:09:09.047Z,924.45
2016-10-26T07:10:19.546Z,924.42
2016-10-26T07:11:30.583Z,924.42
2016-10-26T07:12:41.071Z,924.45
2016-10-26T07:13:51.578Z,924.45
2016-10-26T07:15:02.081Z,924.41
2016-10-26T07:16:12.586Z,924.46
2016-10-26T07:17:23.086Z,924.46
2016-10-26T07:18:33.715Z,924.42
2016-10-26T07:19:44.225Z,924.45
2016-10-26T07:20:54.739Z,924.39
2016-10-26T07:22:05.243Z,924.42
2016-10-26T07:23:15.844Z,924.43
2016-10-26T07:24:26.393Z,924.39
2016-10-26T07:25:37.422Z,924.39
2016-10-26T07:26:47.939Z,924.39
2016-10-26T07:27:58.506Z,924.4
2016-10-26T07:29:09.034Z,924.38
2016-10-26T07:30:19.681Z,924.37
2016-10-26T07:31:30.322Z,924.37
2016-10-26T07:32:40.969Z,924.38
2016-10-26T07:33:51.550Z,924.44
2016-10-26T07:35:02.067Z,924.38
2016-10-26T07:36:12.649Z,924.39
2016-10-26T07:37:23.189Z,924.43
2016-10-26T07:38:33.735Z,924.44
2016-10-26T07:39:44.327Z,924.46
2016-10-26T07:40:54.851Z,924.46
2016-10-26T07:42:05.492Z,924.44
2016-10-26T07:43:16.062Z,924.42
2016-10-26T07:44:26.587Z,924.41
2016-10-26T07:45:37.651Z,924.38
2016-10-26T07:46:48.182Z,924.34
2016-10-26T07:47:58.805Z,924.42
2016-10-26T07:49:09.300Z,924.41
2016-10-26T07:50:19.848Z,924.43
2016-10-26T07:51:30.419Z,924.43
2016-10-26T07:52:40.910Z,924.37
2016-10-26T07:53:51.405Z,924.43
2016-10-26T07:55:01.885Z,924.42
2016-10-26T07:56:12.373Z,924.46
2016-10-26T07:57:22.856Z,924.5
2016-10-26T07:58:33.333Z,924.5
2016-10-26T07:59:43.780Z,924.53
2016-10-26T08:00:54.275Z,924.56
2016-10-26T08:02:04.721Z,924.56
2016-10-26T08:03:15.207Z,924.53
2016-10-26T08:04:26.180Z,924.55
2016-10-26T08:05:36.774Z,924.53
2016-10-26T08:06:47.277Z,924.5
2016-10-26T08:07:57.754Z,924.5
2016-10-26T08:09:08.249Z,924.53
2016-10-26T08:10:18.716Z,924.55
2016-10-26T08:11:29.303Z,924.52
2016-10-26T08:12:39.801Z,924.6
2016-10-26T08:13:50.267Z,924.61
2016-10-26T08:15:00.774Z,924.6
2016-10-26T08:16:11.273Z,924.59
2016-10-26T08:17:21.794Z,924.62
2016-10-26T08:18:32.267Z,924.59
2016-10-26T08:19:42.762Z,924.62
2016-10-26T08:20:53.268Z,924.67
2016-10-26T08:22:03.786Z,924.66
2016-10-26T08:23:14.272Z,924.65
2016-10-26T08:24:24.804Z,924.7
2016-10-26T08:25:35.327Z,924.75
2016-10-26T08:26:45.817Z,924.72
2016-10-26T08:27:56.313Z,924.77
2016-10-26T08:29:06.857Z,924.7
2016-10-26T08:30:17.360Z,924.69
2016-10-26T08:31:27.837Z,924.71
2016-10-26T08:32:38.411Z,924.67
2016-10-26T08:33:48.930Z,924.65
2016-10-26T08:34:59.499Z,924.69
2016-10-26T08:36:10.033Z,924.58
2016-10-26T08:37:20.545Z,924.67
2016-10-26T08:38:30.992Z,924.66
2016-10-26T08:39:41.492Z,924.66
2016-10-26T08:40:51.981Z,924.65
2016-10-26T08:42:02.448Z,924.69
2016-10-26T08:43:12.937Z,924.66
2016-10-26T08:44:23.478Z,924.67
2016-10-26T08:45:33.973Z,924.7
2016-10-26T08:46:44.594Z,924.69
2016-10-26T08:47:55.145Z,924.69
2016-10-26T08:49:05.639Z,924.72
2016-10-26T08:50:16.109Z,924.66
2016-10-26T08:51:26.619Z,924.69
2016-10-26T08:52:37.141Z,924.7
2016-10-26T08:53:47.671Z,924.77
2016-10-26T08:54:58.183Z,924.73
2016-10-26T08:56:08.689Z,924.72
2016-10-26T08:57:19.728Z,924.76
2016-10-26T08:58:30.973Z,924.75
2016-10-26T08:59:41.534Z,924.74
2016-10-26T09:00:52.109Z,924.8
2016-10-26T09:02:02.728Z,924.8
2016-10-26T09:03:13.309Z,924.78
2016-10-26T09:04:23.980Z,924.8
2016-10-26T09:05:34.552Z,924.85
2016-10-26T09:06:45.130Z,924.8
2016-10-26T09:07:55.753Z,924.87
2016-10-26T09:09:06.321Z,924.89
2016-10-26T09:10:16.897Z,924.9
2016-10-26T09:11:27.462Z,924.93
2016-10-26T09:12:38.117Z,924.95
2016-10-26T09:13:48.691Z,925
2016-10-26T09:14:59.274Z,925.03
2016-10-26T09:16:10.439Z,925.01
2016-10-26T09:17:21.023Z,925.03
2016-10-26T09:18:31.989Z,925.03
2016-10-26T09:19:42.569Z,925.04
2016-10-26T09:20:53.137Z,925.03
2016-10-26T09:22:03.711Z,925.05
2016-10-26T09:23:14.279Z,925.08
2016-10-26T09:24:24.860Z,925.1
2016-10-26T09:25:35.444Z,925.09
2016-10-26T09:26:46.016Z,925.17
2016-10-26T09:27:56.694Z,925.13
2016-10-26T09:29:07.272Z,925.16
2016-10-26T09:30:17.849Z,925.2
2016-10-26T09:31:28.422Z,925.2
2016-10-26T09:32:38.993Z,925.19
2016-10-26T09:33:49.566Z,925.19
2016-10-26T09:35:00.150Z,925.22
2016-10-26T09:36:10.727Z,925.21
2016-10-26T09:37:21.312Z,925.3
2016-10-26T09:38:31.883Z,925.23
2016-10-26T09:39:42.558Z,925.25
2016-10-26T09:40:53.131Z,925.23
2016-10-26T09:42:03.754Z,925.25
2016-10-26T09:43:14.321Z,925.24
2016-10-26T09:44:24.900Z,925.28
2016-10-26T09:45:35.470Z,925.3
2016-10-26T09:46:46.153Z,925.28
2016-10-26T09:47:56.720Z,925.27
2016-10-26T09:49:07.296Z,925.28
2016-10-26T09:50:17.873Z,925.33
2016-10-26T09:51:28.439Z,925.36
2016-10-26T09:52:39.023Z,925.38
2016-10-26T09:53:49.597Z,925.39
2016-10-26T09:55:00.157Z,925.35
2016-10-26T09:56:10.734Z,925.32
2016-10-26T09:57:21.462Z,925.33
2016-10-26T09:58:32.042Z,925.3
2016-10-26T09:59:42.622Z,925.35
2016-10-26T10:00:53.199Z,925.31
2016-10-26T10:02:03.770Z,925.34
2016-10-26T10:03:14.344Z,925.32
2016-10-26T10:04:25.388Z,925.36
2016-10-26T10:05:35.960Z,925.37
2016-10-26T10:06:46.514Z,925.37
2016-10-26T10:07:57.042Z,925.38
2016-10-26T10:09:07.723Z,925.42
2016-10-26T10:10:18.249Z,925.49
2016-10-26T10:11:28.752Z,925.49
2016-10-26T10:12:39.327Z,925.52
2016-10-26T10:13:50.400Z,925.57
2016-10-26T10:15:01.056Z,925.52
2016-10-26T10:16:11.571Z,925.52
2016-10-26T10:17:22.072Z,925.63
2016-10-26T10:18:32.635Z,925.67
2016-10-26T10:19:43.154Z,925.73
2016-10-26T10:20:53.668Z,925.69
2016-10-26T10:22:04.203Z,925.75
2016-10-26T10:23:14.751Z,925.83
2016-10-26T10:24:25.290Z,925.84
2016-10-26T10:25:35.873Z,925.91
2016-10-26T10:26:46.503Z,925.95
2016-10-26T10:27:57.024Z,925.99
2016-10-26T10:29:07.567Z,925.95
2016-10-26T10:30:18.140Z,925.91
2016-10-26T10:31:28.680Z,925.96
2016-10-26T10:32:39.306Z,926.01
2016-10-26T10:33:49.832Z,925.98
2016-10-26T10:35:00.388Z,926.03
2016-10-26T10:36:10.918Z,926.09
2016-10-26T10:37:21.454Z,926.1
2016-10-26T10:38:31.935Z,926.16
2016-10-26T10:39:42.423Z,926.13
2016-10-26T10:40:53.098Z,926.16
2016-10-26T10:42:03.604Z,926.25
2016-10-26T10:43:14.110Z,926.3
2016-10-26T10:44:24.700Z,926.25
2016-10-26T10:45:35.212Z,926.41
2016-10-26T10:46:45.749Z,926.63
2016-10-26T10:47:56.204Z,926.89
2016-10-26T10:49:06.694Z,927.89
2016-10-26T10:50:31.829Z,927.72
2016-10-26T10:51:42.298Z,927.29
2016-10-26T10:52:52.807Z,926.74
2016-10-26T10:54:03.332Z,926.78
2016-10-26T10:55:13.863Z,928.89
2016-10-26T10:56:24.477Z,926.77
2016-10-26T10:57:35.000Z,926.64
2016-10-26T10:58:45.509Z,926.65
2016-10-26T10:59:56.021Z,927.22
2016-10-26T11:01:06.477Z,926.8
2016-10-26T11:02:17.078Z,926.43
2016-10-26T11:03:28.058Z,926.68
2016-10-26T11:04:38.553Z,927.82
2016-10-26T11:05:49.048Z,929.15
2016-10-26T11:06:59.556Z,929.27
2016-10-26T11:08:10.213Z,929.21
2016-10-26T11:09:20.727Z,928.75
2016-10-26T11:10:31.232Z,929.04
2016-10-26T11:11:41.770Z,927.62
2016-10-26T11:12:52.236Z,930.13
2016-10-26T11:14:02.802Z,927
2016-10-26T11:15:13.296Z,929.92
2016-10-26T11:16:23.803Z,929.63
2016-10-26T11:17:34.313Z,928.91
2016-10-26T11:18:44.823Z,930.06
2016-10-26T11:19:55.418Z,928.84
2016-10-26T11:21:05.947Z,928.94
2016-10-26T11:22:16.425Z,931.3
2016-10-26T11:23:26.962Z,930.71
2016-10-26T11:24:37.947Z,930.85
2016-10-26T11:25:48.473Z,930.89
2016-10-26T11:26:58.984Z,931.68
2016-10-26T11:28:09.455Z,931.67
2016-10-26T11:29:19.930Z,931.34
2016-10-26T11:30:30.429Z,931.9
2016-10-26T11:31:41.035Z,931.32
2016-10-26T11:32:51.494Z,931.63
2016-10-26T11:34:01.988Z,931.38
2016-10-26T11:35:12.456Z,931.49
2016-10-26T11:36:22.982Z,930.98
2016-10-26T11:37:33.479Z,927.7
2016-10-26T11:38:43.993Z,930.46
2016-10-26T11:39:54.480Z,930.57
2016-10-26T11:41:05.021Z,930.49
2016-10-26T11:42:15.570Z,929.67
2016-10-26T11:43:26.216Z,927.47
2016-10-26T11:44:36.682Z,931.52
2016-10-26T11:45:47.174Z,931.9
2016-10-26T11:46:57.627Z,930.97
2016-10-26T11:48:08.089Z,927.26
2016-10-26T11:49:18.661Z,932.71
2016-10-26T11:50:29.125Z,933.97
2016-10-26T11:51:39.586Z,932.46
2016-10-26T11:52:50.054Z,934.35
2016-10-26T11:54:00.524Z,934.53
2016-10-26T11:55:11.003Z,935.88
2016-10-26T11:56:21.484Z,935.15
2016-10-26T11:57:31.970Z,935.06
2016-10-26T11:58:42.440Z,934.47
2016-10-26T11:59:52.904Z,937.98
2016-10-26T12:01:03.476Z,928.56
2016-10-26T12:02:13.971Z,927.71
2016-10-26T12:03:24.444Z,938.26
2016-10-26T12:04:35.401Z,938.54
2016-10-26T12:05:45.865Z,938.1
2016-10-26T12:06:56.337Z,938.94
2016-10-26T12:08:06.847Z,940.26
2016-10-26T12:09:17.318Z,940.76
2016-10-26T12:10:27.795Z,940.29
2016-10-26T12:11:38.255Z,939.49
2016-10-26T12:12:48.825Z,932.93
2016-10-26T12:13:59.291Z,940.9
2016-10-26T12:15:09.759Z,940.7
2016-10-26T12:16:20.235Z,940.52
2016-10-26T12:17:30.706Z,938.9
2016-10-26T12:18:41.180Z,935.46
2016-10-26T12:19:51.662Z,934.74
2016-10-26T12:21:02.617Z,937.05
2016-10-26T12:22:13.104Z,930.92
2016-10-26T12:23:23.626Z,932.7
2016-10-26T12:24:34.205Z,934.92
2016-10-26T12:25:44.677Z,934.9
2016-10-26T12:26:55.153Z,939.07
2016-10-26T12:28:05.619Z,939.03
2016-10-26T12:29:16.086Z,940.69
2016-10-26T12:30:26.549Z,940.26
2016-10-26T12:31:37.033Z,930.74
2016-10-26T12:32:47.507Z,938.47
2016-10-26T12:33:57.985Z,932.4
2016-10-26T12:35:08.448Z,941.13
2016-10-26T12:36:19.513Z,941.95
2016-10-26T12:37:30.504Z,940.32
2016-10-26T12:38:53.715Z,939.17
2016-10-26T12:40:04.192Z,939.98
2016-10-26T12:41:14.684Z,939.14
2016-10-26T12:42:25.248Z,939.41
2016-10-26T12:43:35.721Z,939.16
2016-10-26T12:44:46.188Z,937.41
2016-10-26T12:45:56.679Z,934.85
2016-10-26T12:47:07.146Z,935.42
2016-10-26T12:48:17.615Z,927.74
2016-10-26T12:49:28.096Z,930.72
2016-10-26T12:50:38.573Z,928.63
2016-10-26T12:51:49.189Z,928.65
2016-10-26T12:52:59.807Z,929.67
2016-10-26T12:54:10.374Z,928.33
2016-10-26T12:55:20.917Z,931.6
2016-10-26T12:56:31.472Z,931.25
2016-10-26T12:57:42.055Z,930.54
2016-10-26T12:58:53.184Z,930.37
2016-10-26T13:00:03.811Z,929.6
2016-10-26T13:01:14.389Z,927.88
2016-10-26T13:02:24.932Z,927.22
2016-10-26T13:03:35.966Z,928.67
2016-10-26T13:04:46.523Z,928.82
2016-10-26T13:05:57.092Z,927.54
2016-10-26T13:07:07.679Z,928.43
2016-10-26T13:08:18.259Z,928.22
2016-10-26T13:09:28.817Z,926.83
2016-10-26T13:10:39.486Z,928.18
2016-10-26T13:11:50.029Z,927.96
2016-10-26T13:13:00.585Z,927.91
2016-10-26T13:14:11.142Z,927.7
2016-10-26T13:16:25.195Z,927.57
2016-10-26T13:17:35.711Z,927.34
2016-10-26T13:18:46.246Z,927.58
2016-10-26T13:19:56.790Z,927.57
2016-10-26T13:21:07.336Z,927.39
2016-10-26T13:22:17.973Z,927.24
2016-10-26T13:23:28.541Z,927.31
2016-10-26T13:24:39.119Z,927.44
2016-10-26T13:25:49.716Z,927.19
2016-10-26T13:27:00.278Z,927.15
2016-10-26T13:28:10.973Z,926.85
2016-10-26T13:29:21.560Z,926.57
2016-10-26T13:30:32.638Z,926.28
2016-10-26T13:31:43.151Z,926.34
2016-10-26T13:32:53.709Z,926.61
2016-10-26T13:34:04.305Z,926.82
2016-10-26T13:35:14.879Z,926.68
2016-10-26T13:36:25.464Z,926.5
2016-10-26T13:37:36.006Z,926.25
2016-10-26T13:38:46.513Z,926.14
2016-10-26T13:39:57.163Z,926.39
2016-10-26T13:41:08.164Z,925.99
2016-10-26T13:42:18.708Z,926.14
2016-10-26T13:43:29.245Z,926.37
2016-10-26T13:44:39.822Z,926.24
2016-10-26T13:45:50.440Z,926.58
2016-10-26T13:47:01.521Z,926.42
2016-10-26T13:48:12.069Z,926.19
2016-10-26T13:49:22.658Z,925.99
2016-10-26T13:50:33.232Z,925.89
2016-10-26T13:51:43.887Z,925.9
2016-10-26T13:52:54.449Z,925.94
2016-10-26T13:54:05.061Z,925.93
2016-10-26T13:55:15.652Z,925.79
2016-10-26T13:56:26.231Z,925.9
2016-10-26T13:57:36.914Z,926.02
2016-10-26T13:58:47.410Z,925.97
2016-10-26T13:59:58.427Z,925.93
2016-10-26T14:01:08.954Z,925.83
2016-10-26T14:02:19.509Z,925.85
2016-10-26T14:03:30.074Z,925.94
2016-10-26T14:04:40.636Z,926.04
2016-10-26T14:05:51.136Z,925.73
2016-10-26T14:07:01.641Z,925.65
2016-10-26T14:08:12.176Z,925.84
2016-10-26T14:09:22.799Z,925.57
2016-10-26T14:10:33.318Z,925.34
2016-10-26T14:11:43.815Z,925.34
2016-10-26T14:12:54.358Z,925.43
2016-10-26T14:14:04.865Z,925.56
2016-10-26T14:15:15.516Z,925.65
2016-10-26T14:16:26.062Z,925.6
2016-10-26T14:17:37.080Z,925.57
2016-10-26T14:18:47.585Z,925.55
2016-10-26T14:19:58.135Z,925.7
2016-10-26T14:21:09.133Z,925.83
2016-10-26T14:22:19.727Z,925.76
2016-10-26T14:23:30.213Z,925.84
2016-10-26T14:24:40.689Z,925.75
2016-10-26T14:25:51.172Z,925.7
2016-10-26T14:27:01.720Z,925.64
2016-10-26T14:28:12.727Z,925.64
2016-10-26T14:29:23.269Z,925.62
2016-10-26T14:30:34.299Z,925.49
2016-10-26T14:31:44.841Z,925.49
2016-10-26T14:32:55.465Z,925.37
2016-10-26T14:34:06.483Z,925.49
2016-10-26T14:35:16.991Z,925.47
2016-10-26T14:36:27.487Z,925.51
2016-10-26T14:37:37.999Z,925.46
2016-10-26T14:38:48.537Z,925.54
2016-10-26T14:40:00.030Z,925.43
2016-10-26T14:41:11.045Z,925.46
2016-10-26T14:42:21.602Z,925.44
2016-10-26T14:43:32.142Z,925.43
2016-10-26T14:44:42.798Z,925.34
2016-10-26T14:45:53.337Z,925.24